Time;durP1;ratioP1;P1;durP2;ratioP2;P2;SDS_P1;SDS_P2;PMS_P1;PMS_P2;Temp;Humidity;BMP_temperature;BMP_pressure;BME280_temperature;BME280_humidity;BME280_pressure;Samples;Min_cycle;Max_cycle;Signal;HPM_P1;HPM_P2
2021/03/07 00:15:10;;;;;;;;;;;;;;;-5.64;84.60;93734.44;1424484;39;21293;31
2021/03/07 00:20:42;;;;;;;;;;;;;;;-5.76;84.56;93731.62;1473536;39;21325;31
2021/03/07 00:21:56;;;;;;;;;;;;;;;-5.71;84.79;93725.50;1425548;39;21378;31
2021/03/07 00:23:11;;;;;;;;;;;;;;;-5.78;85.00;93727.78;1428835;39;20613;31
2021/03/07 00:24:17;;;;;;;;;;;;;;;-5.77;85.13;93724.12;1435304;39;20342;31
2021/03/07 00:29:49;;;;;;;;;;;;;;;-5.70;84.87;93727.84;1426279;39;20219;31
2021/03/07 00:30:56;;;;;;;;;;;;;;;-5.72;85.08;93731.81;1414758;39;20275;31
2021/03/07 00:34:42;;;;;;;;;;;;;;;-5.75;83.94;93730.56;1426605;39;20246;31
2021/03/07 00:41:08;;;;;;;;;;;;;;;-5.73;83.44;93728.44;1407773;40;21212;31
2021/03/07 00:43:33;;;;;;;;;;;;;;;-5.76;83.90;93726.41;1473334;39;21314;31
2021/03/07 00:53:26;;;;;;;;;;;;;;;-5.88;85.02;93721.78;1495515;39;20218;31
2021/03/07 00:58:30;;;;;;;;;;;;;;;-5.80;83.84;93720.25;1426299;39;21246;31
2021/03/07 01:04:42;;;;;;;;;;;;;;;-5.97;84.71;93705.37;1424029;39;20223;31
2021/03/07 01:07:25;;;;;;;;;;;;;;;-5.90;85.25;93703.06;1419020;39;20712;31
2021/03/07 01:08:39;;;;;;;;;;;;;;;-5.95;85.67;93703.22;1416128;40;21185;31
2021/03/07 01:18:11;;;;;;;;;;;;;;;-5.91;84.46;93698.94;1429440;39;20223;31
2021/03/07 01:19:12;;;;;;;;;;;;;;;-5.89;84.58;93693.41;1410817;39;20235;31
2021/03/07 01:20:26;;;;;;;;;;;;;;;-5.85;84.94;93694.38;1420967;39;21177;31
2021/03/07 01:21:40;;;;;;;;;;;;;;;-5.88;84.18;93697.59;1427506;39;21315;31
2021/03/07 01:22:54;;;;;;;;;;;;;;;-5.98;84.35;93692.63;1426160;39;20262;31
2021/03/07 01:25:46;;;;;;;;;;;;;;;-5.91;85.37;93687.75;1482814;39;20587;31
2021/03/07 01:39:00;;;;;;;;;;;;;;;-6.05;86.76;93681.91;1427799;39;20235;31
2021/03/07 01:46:19;;;;;;;;;;;;;;;-6.16;84.96;93670.94;1473756;39;20216;31
2021/03/07 01:54:37;;;;;;;;;;;;;;;-6.04;85.30;93667.81;1426375;39;21828;31
2021/03/07 01:55:51;;;;;;;;;;;;;;;-6.06;85.48;93667.34;1420578;39;20255;31
2021/03/07 02:03:37;;;;;;;;;;;;;;;-5.84;85.59;93649.03;1485754;39;21699;31
2021/03/07 02:04:53;;;;;;;;;;;;;;;-5.79;85.96;93661.94;1431167;39;22632;31
2021/03/07 02:06:10;;;;;;;;;;;;;;;-5.73;86.64;93652.16;1426032;39;20368;31
2021/03/07 02:07:12;;;;;;;;;;;;;;;-5.66;86.49;93645.47;1426146;39;22635;31
2021/03/07 02:09:54;;;;;;;;;;;;;;;-5.41;86.09;93644.00;1430283;39;21297;31
2021/03/07 02:15:44;;;;;;;;;;;;;;;-5.32;85.06;93620.56;1424374;39;20222;31
2021/03/07 02:21:52;;;;;;;;;;;;;;;-5.12;86.46;93624.47;1426409;39;20318;31
2021/03/07 02:23:07;;;;;;;;;;;;;;;-4.88;86.11;93624.78;1413778;39;20196;31
2021/03/07 02:25:24;;;;;;;;;;;;;;;-5.03;84.65;93620.03;1436430;39;20242;31
2021/03/07 02:28:06;;;;;;;;;;;;;;;-4.95;86.12;93614.06;1418403;39;21297;31
2021/03/07 02:29:20;;;;;;;;;;;;;;;-4.86;86.04;93616.66;1418601;39;21159;31
2021/03/07 02:30:34;;;;;;;;;;;;;;;-4.87;85.97;93617.75;1407972;40;21371;31
2021/03/07 02:37:48;;;;;;;;;;;;;;;-4.59;86.04;93607.75;1434343;39;21182;31
2021/03/07 02:39:02;;;;;;;;;;;;;;;-4.55;85.59;93600.84;1420927;39;20227;31
2021/03/07 02:40:20;;;;;;;;;;;;;;;-4.63;85.33;93610.22;1422441;39;20327;31
2021/03/07 02:41:34;;;;;;;;;;;;;;;-4.65;85.84;93607.16;1419970;39;20274;31
2021/03/07 02:42:48;;;;;;;;;;;;;;;-4.65;85.35;93601.94;1428328;39;20243;31
2021/03/07 02:43:54;;;;;;;;;;;;;;;-4.60;86.28;93587.97;1428343;39;21404;31
2021/03/07 02:45:09;;;;;;;;;;;;;;;-4.60;86.03;93596.56;1416170;39;20246;31
2021/03/07 02:48:31;;;;;;;;;;;;;;;-4.57;85.17;93584.75;1428991;39;21360;31
2021/03/07 02:49:45;;;;;;;;;;;;;;;-4.53;85.95;93577.84;1420702;39;20441;31
2021/03/07 02:50:59;;;;;;;;;;;;;;;-4.38;85.59;93579.19;1401880;40;20252;31
2021/03/07 02:53:47;;;;;;;;;;;;;;;-4.44;85.06;93572.59;1416995;39;20208;31
2021/03/07 02:55:03;;;;;;;;;;;;;;;-4.43;85.85;93574.16;1413911;40;20237;31
2021/03/07 02:56:17;;;;;;;;;;;;;;;-4.57;84.96;93574.31;1411096;40;20192;31
2021/03/07 02:57:31;;;;;;;;;;;;;;;-4.39;84.56;93572.44;1419320;39;20207;31
2021/03/07 02:58:45;;;;;;;;;;;;;;;-4.31;84.13;93577.63;1422639;39;20208;31
2021/03/07 02:59:50;;;;;;;;;;;;;;;-4.33;84.34;93577.19;1410798;39;20224;31
2021/03/07 03:01:03;;;;;;;;;;;;;;;-4.23;84.47;93581.31;1407339;40;20729;31
2021/03/07 03:02:17;;;;;;;;;;;;;;;-4.34;84.50;93574.91;1412533;39;20275;31
2021/03/07 03:03:23;;;;;;;;;;;;;;;-4.30;85.28;93581.03;1413973;39;21258;31
2021/03/07 03:06:06;;;;;;;;;;;;;;;-4.11;84.61;93584.03;1413525;39;20219;31
2021/03/07 03:07:20;;;;;;;;;;;;;;;-4.24;84.78;93586.84;1429146;39;20239;31
2021/03/07 03:10:05;;;;;;;;;;;;;;;-4.06;85.15;93568.22;1425068;39;20205;31
2021/03/07 03:11:22;;;;;;;;;;;;;;;-4.13;83.46;93557.47;1432196;39;21131;31
2021/03/07 03:12:42;;;;;;;;;;;;;;;-3.91;83.27;93560.94;1419863;39;21163;31
2021/03/07 03:18:44;;;;;;;;;;;;;;;-4.11;83.67;93565.00;1434148;39;20326;31
2021/03/07 03:19:49;;;;;;;;;;;;;;;-4.11;84.67;93563.16;1422914;39;22568;31
2021/03/07 03:21:04;;;;;;;;;;;;;;;-4.11;85.01;93557.94;1422196;39;21284;31
2021/03/07 03:22:08;;;;;;;;;;;;;;;-4.01;84.60;93564.66;1430065;39;20298;31
2021/03/07 03:25:40;;;;;;;;;;;;;;;-4.11;85.20;93557.94;1426381;39;21512;31
2021/03/07 03:27:01;;;;;;;;;;;;;;;-4.06;83.95;93557.75;1429488;39;20214;31
2021/03/07 03:28:15;;;;;;;;;;;;;;;-4.06;84.55;93565.59;1428376;39;20198;31
2021/03/07 03:29:29;;;;;;;;;;;;;;;-4.08;84.20;93565.16;1426651;39;21195;31
2021/03/07 03:30:43;;;;;;;;;;;;;;;-4.10;85.13;93551.63;1422393;39;21380;31
2021/03/07 03:32:01;;;;;;;;;;;;;;;-4.07;84.81;93555.47;1447247;39;20206;31
2021/03/07 03:33:15;;;;;;;;;;;;;;;-3.94;84.58;93544.06;1432573;39;21246;31
2021/03/07 03:34:29;;;;;;;;;;;;;;;-3.99;85.79;93548.69;1432839;39;20191;31
2021/03/07 03:35:45;;;;;;;;;;;;;;;-3.91;84.59;93542.66;1427583;39;21120;31
2021/03/07 03:36:49;;;;;;;;;;;;;;;-3.76;84.00;93551.81;1433812;39;22374;31
2021/03/07 03:40:13;;;;;;;;;;;;;;;-3.82;83.71;93540.75;1414608;39;20232;31
2021/03/07 03:41:27;;;;;;;;;;;;;;;-3.95;85.67;93534.72;1427145;39;20297;31
2021/03/07 03:45:41;;;;;;;;;;;;;;;-3.92;85.63;93521.00;1433391;39;20254;31
2021/03/07 03:46:58;;;;;;;;;;;;;;;-3.90;85.15;93518.09;1430949;39;20250;31
2021/03/07 03:48:11;;;;;;;;;;;;;;;-3.82;85.36;93522.47;1425096;39;20227;31
2021/03/07 03:50:43;;;;;;;;;;;;;;;-3.92;85.65;93521.00;1428844;39;22544;31
2021/03/07 03:56:00;;;;;;;;;;;;;;;-3.82;86.04;93522.47;1422150;39;20256;31
2021/03/07 03:57:05;;;;;;;;;;;;;;;-3.90;85.53;93526.69;1435183;39;20256;31
2021/03/07 03:58:21;;;;;;;;;;;;;;;-3.96;85.27;93524.56;1429574;39;20321;31
2021/03/07 03:59:35;;;;;;;;;;;;;;;-3.89;86.10;93515.16;1427290;39;20245;31
2021/03/07 04:02:05;;;;;;;;;;;;;;;-3.64;85.60;93523.94;1433788;39;20202;31
2021/03/07 04:03:19;;;;;;;;;;;;;;;-3.56;84.99;93533.59;1425410;39;21162;31
2021/03/07 04:05:50;;;;;;;;;;;;;;;-3.81;86.71;93526.66;1424478;39;22630;31
2021/03/07 04:08:32;;;;;;;;;;;;;;;-3.72;87.00;93526.59;1426123;39;20239;31
2021/03/07 04:09:47;;;;;;;;;;;;;;;-3.73;86.38;93531.06;1430039;39;22495;31
2021/03/07 04:12:08;;;;;;;;;;;;;;;-3.65;86.90;93521.63;1441388;39;20210;31
2021/03/07 04:13:15;;;;;;;;;;;;;;;-3.53;86.56;93519.12;1420237;39;21334;31
2021/03/07 04:14:29;;;;;;;;;;;;;;;-3.56;86.87;93522.34;1416478;39;21228;31
2021/03/07 04:15:43;;;;;;;;;;;;;;;-3.43;85.56;93523.19;1411377;39;21225;31
2021/03/07 04:16:49;;;;;;;;;;;;;;;-3.52;86.33;93531.09;1422806;39;20227;31
2021/03/07 04:18:03;;;;;;;;;;;;;;;-3.57;86.07;93518.97;1418996;39;22783;31
2021/03/07 04:19:17;;;;;;;;;;;;;;;-3.49;86.43;93520.00;1415890;39;20269;31
2021/03/07 04:23:34;;;;;;;;;;;;;;;-3.41;85.74;93518.44;1447243;39;20197;31
2021/03/07 04:24:48;;;;;;;;;;;;;;;-3.43;84.33;93520.59;1427415;39;20225;31
2021/03/07 04:26:08;;;;;;;;;;;;;;;-3.49;85.19;93522.63;1438021;39;20652;31
2021/03/07 04:27:23;;;;;;;;;;;;;;;-3.46;84.88;93522.00;1427670;39;20219;31
2021/03/07 04:28:34;;;;;;;;;;;;;;;-3.49;84.64;93524.47;1412873;40;22588;31
2021/03/07 04:29:48;;;;;;;;;;;;;;;-3.44;85.38;93519.81;1413349;39;20195;31
2021/03/07 04:31:02;;;;;;;;;;;;;;;-3.48;84.74;93524.16;1431902;39;20233;31
2021/03/07 04:32:14;;;;;;;;;;;;;;;-3.40;85.00;93525.94;1427452;39;20783;31
2021/03/07 04:33:29;;;;;;;;;;;;;;;-3.42;84.60;93522.13;1434068;39;21303;31
2021/03/07 04:34:34;;;;;;;;;;;;;;;-3.38;85.17;93523.00;1419488;39;22536;31
2021/03/07 04:35:52;;;;;;;;;;;;;;;-3.34;85.35;93522.06;1422565;39;21268;31
2021/03/07 04:38:24;;;;;;;;;;;;;;;-3.28;85.36;93522.66;1425867;39;20203;31
2021/03/07 04:39:38;;;;;;;;;;;;;;;-3.34;85.11;93514.22;1427729;39;20223;31
2021/03/07 04:40:52;;;;;;;;;;;;;;;-3.32;85.04;93522.50;1430039;39;20234;31
2021/03/07 04:42:06;;;;;;;;;;;;;;;-3.29;85.67;93521.13;1430588;39;21416;31
2021/03/07 04:47:21;;;;;;;;;;;;;;;-3.27;84.18;93518.19;1443330;39;21185;31
2021/03/07 04:48:35;;;;;;;;;;;;;;;-3.22;84.43;93508.28;1433617;39;20317;31
2021/03/07 04:49:49;;;;;;;;;;;;;;;-3.24;84.50;93512.31;1422577;39;20183;31
2021/03/07 04:51:03;;;;;;;;;;;;;;;-3.24;85.12;93513.09;1430751;39;20188;31
2021/03/07 04:52:17;;;;;;;;;;;;;;;-3.20;85.13;93515.84;1426884;39;21207;31
2021/03/07 04:53:31;;;;;;;;;;;;;;;-3.16;84.50;93507.03;1423621;39;20192;31
2021/03/07 04:54:45;;;;;;;;;;;;;;;-3.12;84.54;93512.38;1418180;39;21861;31
2021/03/07 04:55:59;;;;;;;;;;;;;;;-3.17;84.72;93510.72;1409799;40;21710;31
2021/03/07 04:57:13;;;;;;;;;;;;;;;-3.03;84.95;93513.06;1407299;40;21739;31
2021/03/07 04:59:58;;;;;;;;;;;;;;;-3.02;84.41;93511.25;1405898;40;20272;31
2021/03/07 05:01:12;;;;;;;;;;;;;;;-3.09;84.33;93507.28;1405535;40;20201;31
2021/03/07 05:02:17;;;;;;;;;;;;;;;-3.10;85.36;93502.38;1397734;40;20285;31
2021/03/07 05:03:22;;;;;;;;;;;;;;;-3.09;84.96;93507.28;1396094;40;20226;31
2021/03/07 05:04:38;;;;;;;;;;;;;;;-3.07;85.21;93507.72;1406596;40;22641;31
2021/03/07 05:05:52;;;;;;;;;;;;;;;-3.08;84.88;93508.78;1420038;39;21197;31
2021/03/07 05:07:06;;;;;;;;;;;;;;;-3.10;85.34;93510.97;1428050;39;20310;31
2021/03/07 05:08:20;;;;;;;;;;;;;;;-3.11;84.69;93514.69;1418726;39;20394;31
2021/03/07 05:09:35;;;;;;;;;;;;;;;-3.00;85.55;93509.81;1417839;39;20212;31
2021/03/07 05:10:49;;;;;;;;;;;;;;;-2.98;85.12;93505.03;1413971;39;20192;31
2021/03/07 05:13:31;;;;;;;;;;;;;;;-2.83;84.31;93501.81;1426494;39;20211;31
2021/03/07 05:14:45;;;;;;;;;;;;;;;-2.91;83.90;93502.66;1413046;40;21233;31
2021/03/07 05:15:59;;;;;;;;;;;;;;;-2.95;85.45;93507.00;1423710;39;20654;31
2021/03/07 05:17:13;;;;;;;;;;;;;;;-2.91;85.03;93502.66;1424751;39;20234;31
2021/03/07 05:18:27;;;;;;;;;;;;;;;-2.94;84.84;93497.31;1429090;39;20210;31
2021/03/07 05:19:41;;;;;;;;;;;;;;;-2.93;84.85;93507.47;1425196;39;21758;31
2021/03/07 05:20:55;;;;;;;;;;;;;;;-2.88;83.89;93499.41;1426141;39;21215;31
2021/03/07 05:22:11;;;;;;;;;;;;;;;-2.93;85.38;93491.78;1425008;39;20299;31
2021/03/07 05:23:28;;;;;;;;;;;;;;;-2.83;85.04;93498.44;1423139;39;20219;31
2021/03/07 05:24:42;;;;;;;;;;;;;;;-2.85;84.61;93496.16;1419616;39;20215;31
2021/03/07 05:25:57;;;;;;;;;;;;;;;-2.86;84.31;93489.38;1435411;39;20228;31
2021/03/07 05:27:10;;;;;;;;;;;;;;;-2.84;85.30;93491.69;1422631;39;22247;31
2021/03/07 05:28:28;;;;;;;;;;;;;;;-2.76;84.69;93495.31;1418661;39;20289;31
2021/03/07 05:29:42;;;;;;;;;;;;;;;-2.74;84.78;93491.28;1423261;39;20208;31
2021/03/07 05:30:56;;;;;;;;;;;;;;;-2.76;85.02;93497.94;1415407;39;20192;31
2021/03/07 05:32:10;;;;;;;;;;;;;;;-2.77;84.10;93494.53;1426243;39;20210;31
2021/03/07 05:33:16;;;;;;;;;;;;;;;-2.75;83.30;93491.63;1426297;39;20187;31
2021/03/07 05:36:29;;;;;;;;;;;;;;;-2.88;84.89;93486.34;1447197;39;20624;31
2021/03/07 05:37:33;;;;;;;;;;;;;;;-2.81;84.53;93486.59;1437093;39;20277;31
2021/03/07 05:41:56;;;;;;;;;;;;;;;-2.73;84.29;93492.81;1431752;39;20245;31
2021/03/07 05:43:10;;;;;;;;;;;;;;;-2.84;84.20;93486.47;1421854;39;20282;31
2021/03/07 05:44:12;;;;;;;;;;;;;;;-2.85;85.40;93482.31;1416435;39;22579;31
2021/03/07 05:45:26;;;;;;;;;;;;;;;-2.78;84.32;93483.31;1412020;39;21113;31
2021/03/07 05:47:58;;;;;;;;;;;;;;;-2.74;83.88;93480.81;1427534;39;20250;31
2021/03/07 05:49:12;;;;;;;;;;;;;;;-2.75;84.64;93475.91;1418750;39;20240;31
2021/03/07 05:50:26;;;;;;;;;;;;;;;-2.73;84.66;93477.09;1422087;39;21312;31
2021/03/07 05:51:40;;;;;;;;;;;;;;;-2.74;84.15;93472.22;1422190;39;20303;31
2021/03/07 05:52:46;;;;;;;;;;;;;;;-2.74;83.95;93475.59;1418940;39;20191;31
2021/03/07 05:53:59;;;;;;;;;;;;;;;-2.80;83.81;93474.28;1418344;39;20210;31
2021/03/07 05:55:03;;;;;;;;;;;;;;;-2.89;84.54;93473.59;1412795;39;20303;31
2021/03/07 05:56:09;;;;;;;;;;;;;;;-2.82;84.95;93473.81;1420574;39;22704;31
2021/03/07 05:58:18;;;;;;;;;;;;;;;-2.84;84.28;93476.75;1439194;39;21215;31
2021/03/07 06:01:29;;;;;;;;;;;;;;;-2.85;83.87;93479.72;1442194;39;20209;31
2021/03/07 06:02:43;;;;;;;;;;;;;;;-2.92;85.04;93477.59;1422921;39;20215;31
2021/03/07 06:03:57;;;;;;;;;;;;;;;-2.96;85.52;93471.47;1418446;39;21319;31
2021/03/07 06:05:01;;;;;;;;;;;;;;;-2.95;84.96;93478.22;1426725;39;20330;31
2021/03/07 06:06:15;;;;;;;;;;;;;;;-2.84;84.40;93476.00;1427649;39;21149;31
2021/03/07 06:07:29;;;;;;;;;;;;;;;-2.87;84.71;93474.78;1420154;39;20250;31
2021/03/07 06:08:43;;;;;;;;;;;;;;;-2.79;85.05;93468.72;1419983;39;20209;31
2021/03/07 06:09:57;;;;;;;;;;;;;;;-2.89;85.41;93471.72;1427031;39;21122;31
2021/03/07 06:11:00;;;;;;;;;;;;;;;-2.90;85.21;93472.78;1424159;39;21341;31
2021/03/07 06:14:22;;;;;;;;;;;;;;;-2.80;85.11;93475.03;1439679;39;21205;31
2021/03/07 06:15:26;;;;;;;;;;;;;;;-2.78;84.22;93472.84;1426618;39;20321;31
2021/03/07 06:16:30;;;;;;;;;;;;;;;-2.69;84.28;93475.38;1435082;39;22560;31
2021/03/07 06:19:54;;;;;;;;;;;;;;;-2.71;84.59;93466.34;1446119;39;21344;31
2021/03/07 06:21:08;;;;;;;;;;;;;;;-2.73;84.44;93469.25;1422838;39;20223;31
2021/03/07 06:22:22;;;;;;;;;;;;;;;-2.82;84.84;93463.34;1429405;39;20262;31
2021/03/07 06:23:35;;;;;;;;;;;;;;;-2.89;84.81;93473.59;1435405;39;20202;31
2021/03/07 06:25:52;;;;;;;;;;;;;;;-2.85;85.97;93458.78;1422721;39;20249;31
2021/03/07 06:27:23;;;;;;;;;;;;;;;-2.73;85.48;93471.13;1419049;39;20184;31
2021/03/07 06:28:36;;;;;;;;;;;;;;;-2.85;84.82;93469.25;1412200;40;21162;31
2021/03/07 06:31:27;;;;;;;;;;;;;;;-2.84;85.69;93470.75;1423161;39;21185;31
2021/03/07 06:32:41;;;;;;;;;;;;;;;-2.86;86.01;93465.84;1424812;39;21167;31
2021/03/07 06:34:15;;;;;;;;;;;;;;;-2.96;84.79;93460.25;1440529;39;20675;31
2021/03/07 06:35:29;;;;;;;;;;;;;;;-2.94;85.53;93465.91;1433840;39;21798;31
2021/03/07 06:36:33;;;;;;;;;;;;;;;-2.95;85.96;93465.16;1430264;39;21247;31
2021/03/07 06:37:47;;;;;;;;;;;;;;;-2.94;85.89;93458.88;1417663;39;21159;31
2021/03/07 06:38:52;;;;;;;;;;;;;;;-2.90;84.94;93464.94;1413214;39;20212;31
2021/03/07 06:40:06;;;;;;;;;;;;;;;-2.93;84.70;93455.16;1414011;40;20250;31
2021/03/07 06:41:18;;;;;;;;;;;;;;;-2.92;84.91;93463.75;1428728;39;21428;31
2021/03/07 06:43:46;;;;;;;;;;;;;;;-2.98;85.96;93454.59;1426838;39;20203;31
2021/03/07 06:45:00;;;;;;;;;;;;;;;-2.98;85.67;93460.59;1425755;39;20237;31
2021/03/07 06:46:05;;;;;;;;;;;;;;;-2.91;84.71;93454.81;1425490;39;20219;31
2021/03/07 06:47:10;;;;;;;;;;;;;;;-2.96;85.67;93463.63;1426645;39;20198;31
2021/03/07 06:48:24;;;;;;;;;;;;;;;-2.91;85.22;93462.66;1421327;39;20222;31
2021/03/07 06:49:36;;;;;;;;;;;;;;;-2.94;85.49;93463.31;1412898;39;22689;31
2021/03/07 06:50:50;;;;;;;;;;;;;;;-2.89;85.38;93456.03;1422858;39;20219;31
2021/03/07 06:52:01;;;;;;;;;;;;;;;-2.86;85.02;93463.22;1424528;39;21178;31
2021/03/07 06:55:46;;;;;;;;;;;;;;;-2.63;84.88;93466.25;1446595;39;21144;31
2021/03/07 06:57:00;;;;;;;;;;;;;;;-2.63;84.62;93458.41;1431253;39;20233;31
2021/03/07 06:58:14;;;;;;;;;;;;;;;-2.50;84.56;93456.56;1433153;39;21602;31
2021/03/07 06:59:29;;;;;;;;;;;;;;;-2.49;84.44;93458.09;1436074;39;20190;31
2021/03/07 07:00:43;;;;;;;;;;;;;;;-2.55;84.60;93457.56;1431511;39;20228;31
2021/03/07 07:01:48;;;;;;;;;;;;;;;-2.50;85.70;93463.63;1430202;39;21278;31
2021/03/07 07:03:57;;;;;;;;;;;;;;;-2.43;83.36;93463.88;1440871;39;22742;31
2021/03/07 07:06:02;;;;;;;;;;;;;;;-2.24;83.99;93465.97;1430106;39;22508;31
2021/03/07 07:07:16;;;;;;;;;;;;;;;-2.34;83.70;93467.16;1425698;39;20233;31
2021/03/07 07:08:30;;;;;;;;;;;;;;;-2.32;83.53;93457.16;1422344;39;21219;31
2021/03/07 07:11:12;;;;;;;;;;;;;;;-2.29;83.88;93461.72;1439397;39;20229;31
2021/03/07 07:12:26;;;;;;;;;;;;;;;-2.33;83.50;93463.44;1432004;39;21249;31
2021/03/07 07:13:40;;;;;;;;;;;;;;;-2.24;83.27;93466.72;1430201;39;20212;31
2021/03/07 07:14:54;;;;;;;;;;;;;;;-2.06;82.69;93459.44;1422948;39;20288;31
2021/03/07 07:16:03;;;;;;;;;;;;;;;-2.05;82.80;93459.13;1420056;39;23026;31
2021/03/07 07:17:17;;;;;;;;;;;;;;;-1.90;82.52;93455.06;1420400;39;20579;31
2021/03/07 07:18:18;;;;;;;;;;;;;;;-1.83;82.16;93460.53;1430154;39;20709;31
2021/03/07 07:20:36;;;;;;;;;;;;;;;-1.66;81.19;93456.91;1422645;39;20231;31
2021/03/07 07:21:50;;;;;;;;;;;;;;;-1.78;81.96;93449.06;1429236;39;20215;31
2021/03/07 07:23:04;;;;;;;;;;;;;;;-1.77;82.27;93453.97;1418420;39;20207;31
2021/03/07 07:24:18;;;;;;;;;;;;;;;-1.72;82.80;93454.84;1421830;39;21231;31
2021/03/07 07:25:32;;;;;;;;;;;;;;;-1.58;81.81;93456.03;1426969;39;20210;31
2021/03/07 07:26:46;;;;;;;;;;;;;;;-1.63;83.15;93456.22;1418477;39;21136;31
2021/03/07 07:28:00;;;;;;;;;;;;;;;-1.47;81.48;93456.31;1419259;39;20233;31
2021/03/07 07:29:14;;;;;;;;;;;;;;;-1.46;81.11;93452.59;1411152;39;21228;31
2021/03/07 07:30:28;;;;;;;;;;;;;;;-1.47;81.56;93447.69;1414049;40;21319;31
2021/03/07 07:31:42;;;;;;;;;;;;;;;-1.43;81.24;93459.06;1424626;39;21727;31
2021/03/07 07:32:44;;;;;;;;;;;;;;;-1.38;80.69;93451.72;1417859;39;22617;31
2021/03/07 07:33:58;;;;;;;;;;;;;;;-1.44;81.44;93460.16;1416022;39;20228;31
2021/03/07 07:35:04;;;;;;;;;;;;;;;-1.31;81.02;93453.78;1428749;39;20229;31
2021/03/07 07:36:09;;;;;;;;;;;;;;;-1.31;81.11;93459.03;1416711;39;21117;31
2021/03/07 07:38:37;;;;;;;;;;;;;;;-1.21;80.62;93453.31;1427587;39;21389;31
2021/03/07 07:42:57;;;;;;;;;;;;;;;-1.02;80.80;93450.81;1442842;39;21340;31
2021/03/07 07:47:11;;;;;;;;;;;;;;;-0.79;79.71;93455.53;1430610;39;22679;31
2021/03/07 07:48:34;;;;;;;;;;;;;;;-0.79;80.48;93452.91;1432072;39;20347;31
2021/03/07 07:49:38;;;;;;;;;;;;;;;-0.88;80.38;93450.47;1429336;39;22500;31
2021/03/07 07:50:43;;;;;;;;;;;;;;;-0.83;79.73;93455.47;1386021;39;21281;31
2021/03/07 07:51:46;;;;;;;;;;;;;;;-0.84;79.78;93455.78;1419703;39;20988;31
2021/03/07 07:55:00;;;;;;;;;;;;;;;-0.67;79.46;93445.00;1443524;39;21265;31
2021/03/07 07:56:04;;;;;;;;;;;;;;;-0.76;80.06;93455.63;1429665;39;43353;31
2021/03/07 07:58:10;;;;;;;;;;;;;;;-0.65;78.61;93458.56;1440212;39;20581;31
2021/03/07 08:01:38;;;;;;;;;;;;;;;-0.57;79.93;93452.38;1448033;39;20241;31
2021/03/07 08:03:56;;;;;;;;;;;;;;;-0.49;78.05;93452.56;1065564;48;20713;-85
2021/03/07 08:06:08;;;;;;;;;;;;;;;-0.39;77.72;93452.81;1444572;39;20300;31
2021/03/07 08:08:12;;;;;;;;;;;;;;;-0.26;78.51;93454.28;1053679;49;20133;-87
2021/03/07 08:10:36;;;;;;;;;;;;;;;-0.19;78.21;93450.28;1339264;39;20681;31
2021/03/07 08:12:45;;;;;;;;;;;;;;;-0.14;78.04;93448.16;1431183;39;20287;31
2021/03/07 08:15:53;;;;;;;;;;;;;;;0.03;77.42;93441.78;1063954;48;20104;-86
2021/03/07 08:19:04;;;;;;;;;;;;;;;0.14;76.96;93449.94;1444376;39;20333;31
2021/03/07 08:21:08;;;;;;;;;;;;;;;0.32;77.68;93440.56;1050904;49;20137;-86
2021/03/07 08:22:08;;;;;;;;;;;;;;;0.39;76.19;93445.22;1048944;56;20833;-84
2021/03/07 08:23:10;;;;;;;;;;;;;;;0.41;76.90;93441.16;1046842;56;20978;-88
2021/03/07 08:24:11;;;;;;;;;;;;;;;0.54;76.75;93447.06;1045770;57;21133;-84
2021/03/07 08:25:12;;;;;;;;;;;;;;;0.48;76.07;93437.87;1042769;57;20215;-86
2021/03/07 08:26:12;;;;;;;;;;;;;;;0.51;76.09;93453.00;1043965;57;20157;-85
2021/03/07 08:27:32;;;;;;;;;;;;;;;0.65;75.92;93444.63;1040154;57;20170;-85
2021/03/07 08:29:49;;;;;;;;;;;;;;;0.71;75.94;93441.41;1411447;39;21396;31
2021/03/07 08:30:57;;;;;;;;;;;;;;;0.80;74.63;93441.19;807635;39;21913;31
2021/03/07 08:33:26;;;;;;;;;;;;;;;0.85;75.47;93435.66;1061536;49;20195;-84
2021/03/07 08:34:26;;;;;;;;;;;;;;;0.98;75.12;93438.91;1050355;56;20228;-86
2021/03/07 08:35:27;;;;;;;;;;;;;;;1.00;74.59;93429.56;1050598;56;20121;-86
2021/03/07 08:36:27;;;;;;;;;;;;;;;1.06;74.94;93429.28;1051069;56;20653;-85
2021/03/07 08:37:30;;;;;;;;;;;;;;;1.10;75.78;93436.16;1051039;56;20093;-84
2021/03/07 08:38:30;;;;;;;;;;;;;;;1.17;75.94;93427.59;1050625;56;20638;-85
2021/03/07 08:39:30;;;;;;;;;;;;;;;1.22;74.37;93428.09;1051131;56;20102;-85
2021/03/07 08:41:37;;;;;;;;;;;;;;;1.41;73.78;93423.91;1402863;39;20535;31
2021/03/07 08:42:40;;;;;;;;;;;;;;;1.26;73.33;93428.91;1056506;48;20133;-85
2021/03/07 08:43:40;;;;;;;;;;;;;;;1.39;74.35;93423.50;1046859;56;20118;-86
2021/03/07 08:44:40;;;;;;;;;;;;;;;1.59;73.58;93422.34;1048454;57;20680;-85
2021/03/07 08:45:58;;;;;;;;;;;;;;;1.67;72.67;93425.88;1046733;56;20704;-86
2021/03/07 08:46:59;;;;;;;;;;;;;;;1.75;73.46;93430.13;1047883;56;20133;-84
2021/03/07 08:47:59;;;;;;;;;;;;;;;1.79;72.86;93423.03;1046731;57;20244;-85
2021/03/07 08:49:16;;;;;;;;;;;;;;;1.67;72.91;93421.34;1047813;57;20243;-85
2021/03/07 08:50:17;;;;;;;;;;;;;;;1.71;72.32;93416.91;1048617;56;20145;-85
2021/03/07 08:51:18;;;;;;;;;;;;;;;1.75;72.53;93419.56;1048970;56;20137;-85
2021/03/07 08:52:18;;;;;;;;;;;;;;;1.77;71.34;93417.38;1044626;56;21209;-86
2021/03/07 08:53:27;;;;;;;;;;;;;;;1.79;72.22;93423.03;1046862;56;20170;-85
2021/03/07 08:55:32;;;;;;;;;;;;;;;1.84;72.93;93416.69;1424343;39;20207;31
2021/03/07 08:56:33;;;;;;;;;;;;;;;1.98;72.84;93420.34;1051310;49;20188;-83
2021/03/07 08:57:33;;;;;;;;;;;;;;;2.09;71.91;93419.72;1048344;56;20313;-85
2021/03/07 08:58:47;;;;;;;;;;;;;;;2.03;71.41;93407.97;1088232;39;21046;-84
2021/03/07 08:59:48;;;;;;;;;;;;;;;2.06;71.41;93412.53;1045990;49;20149;-85
2021/03/07 09:01:02;;;;;;;;;;;;;;;2.09;73.46;93409.19;1254945;40;20138;-86
2021/03/07 09:02:03;;;;;;;;;;;;;;;2.20;72.14;93416.16;1053127;49;20121;-85
2021/03/07 09:03:04;;;;;;;;;;;;;;;2.25;71.55;93409.81;1050976;56;20105;-85
2021/03/07 09:04:05;;;;;;;;;;;;;;;2.47;70.77;93405.59;1050912;56;20670;-85
2021/03/07 09:05:07;;;;;;;;;;;;;;;2.47;71.61;93406.34;1052248;56;20795;-83
2021/03/07 09:06:10;;;;;;;;;;;;;;;2.47;70.15;93414.25;1051214;56;20128;-85
2021/03/07 09:07:10;;;;;;;;;;;;;;;2.52;71.13;93411.31;1054960;56;20097;-85
2021/03/07 09:08:11;;;;;;;;;;;;;;;2.56;70.58;93419.28;1053032;56;20124;-85
2021/03/07 09:09:11;;;;;;;;;;;;;;;2.61;70.81;93400.50;1051003;56;20168;-85
2021/03/07 09:10:11;;;;;;;;;;;;;;;2.78;70.48;93410.50;1050979;56;20153;-85
2021/03/07 09:11:12;;;;;;;;;;;;;;;2.86;69.26;93407.97;1052942;56;20174;-85
2021/03/07 09:12:16;;;;;;;;;;;;;;;2.94;69.17;93407.69;1053108;56;20105;-86
2021/03/07 09:13:20;;;;;;;;;;;;;;;2.81;70.80;93409.03;1053269;56;20719;-84
2021/03/07 09:14:28;;;;;;;;;;;;;;;2.86;69.76;93402.69;1052953;56;20678;-86
2021/03/07 09:15:29;;;;;;;;;;;;;;;2.88;69.84;93395.16;1048899;56;20727;-85
2021/03/07 09:16:36;;;;;;;;;;;;;;;2.85;68.96;93396.62;1051022;56;20188;-86
2021/03/07 09:17:36;;;;;;;;;;;;;;;2.96;69.70;93400.16;1052878;56;20133;-84
2021/03/07 09:18:39;;;;;;;;;;;;;;;3.02;70.64;93393.41;1055036;56;20101;-88
2021/03/07 09:19:40;;;;;;;;;;;;;;;3.13;69.36;93390.16;1054726;56;20112;-84
2021/03/07 09:20:51;;;;;;;;;;;;;;;3.31;69.28;93396.38;1056881;56;20185;-86
2021/03/07 09:22:10;;;;;;;;;;;;;;;3.33;68.94;93396.00;1052564;56;20175;-84
2021/03/07 09:23:29;;;;;;;;;;;;;;;3.40;68.15;93385.53;1049102;56;20183;-84
2021/03/07 09:24:29;;;;;;;;;;;;;;;3.42;67.67;93383.25;1049256;56;20678;-87
2021/03/07 09:25:29;;;;;;;;;;;;;;;3.51;68.40;93389.00;1048802;57;20125;-84
2021/03/07 09:26:30;;;;;;;;;;;;;;;3.70;67.72;93382.78;1048800;57;20146;-84
2021/03/07 09:27:32;;;;;;;;;;;;;;;3.77;68.29;93390.75;1046549;57;20141;-84
2021/03/07 09:28:32;;;;;;;;;;;;;;;3.65;66.70;93385.75;1048831;56;20183;-83
2021/03/07 09:29:32;;;;;;;;;;;;;;;3.63;68.18;93385.34;1050326;56;20167;-85
2021/03/07 09:30:33;;;;;;;;;;;;;;;3.74;68.28;93388.84;1050891;56;21186;-85
2021/03/07 09:31:34;;;;;;;;;;;;;;;3.74;67.37;93379.03;1049150;56;20153;-83
2021/03/07 09:32:36;;;;;;;;;;;;;;;3.73;67.12;93384.66;1049015;56;20224;-85
2021/03/07 09:33:37;;;;;;;;;;;;;;;3.82;67.47;93382.50;1050676;56;20184;-84
2021/03/07 09:34:38;;;;;;;;;;;;;;;4.04;66.32;93372.84;1050897;56;20105;-85
2021/03/07 09:38:11;;;;;;;;;;;;;;;4.12;66.16;93377.03;1064128;48;20191;-85
2021/03/07 09:40:36;;;;;;;;;;;;;;;4.29;67.82;93375.63;1313738;39;20214;-85
2021/03/07 09:41:38;;;;;;;;;;;;;;;4.34;67.33;93371.88;1057949;48;20217;-85